sensor_id;sensor_type;location;lat;lon;timestamp;temperature;humidity
18446;DHT22;9352;50.888;4.466;2023-05-10T00:01:02;13.80;99.90
18446;DHT22;9352;50.888;4.466;2023-05-10T00:03:29;13.80;99.90
18446;DHT22;9352;50.888;4.466;2023-05-10T00:05:57;13.90;99.90
18446;DHT22;9352;50.888;4.466;2023-05-10T00:08:24;13.80;99.90
18446;DHT22;9352;50.888;4.466;2023-05-10T00:10:52;13.90;99.90
18446;DHT22;9352;50.888;4.466;2023-05-10T00:13:19;13.80;99.90
18446;DHT22;9352;50.888;4.466;2023-05-10T00:15:46;13.80;99.90
18446;DHT22;9352;50.888;4.466;2023-05-10T00:18:13;13.90;99.90
18446;DHT22;9352;50.888;4.466;2023-05-10T00:20:40;13.90;99.90
18446;DHT22;9352;50.888;4.466;2023-05-10T00:23:08;13.90;99.90
18446;DHT22;9352;50.888;4.466;2023-05-10T00:25:35;13.90;99.90
18446;DHT22;9352;50.888;4.466;2023-05-10T00:28:02;13.90;99.90
18446;DHT22;9352;50.888;4.466;2023-05-10T00:30:29;13.90;99.90
18446;DHT22;9352;50.888;4.466;2023-05-10T00:32:55;13.90;99.90
18446;DHT22;9352;50.888;4.466;2023-05-10T00:35:23;13.90;99.90
18446;DHT22;9352;50.888;4.466;2023-05-10T00:37:49;13.90;99.90
18446;DHT22;9352;50.888;4.466;2023-05-10T00:40:18;13.90;99.90
18446;DHT22;9352;50.888;4.466;2023-05-10T00:42:45;13.90;99.90
18446;DHT22;9352;50.888;4.466;2023-05-10T00:45:11;13.90;99.90
18446;DHT22;9352;50.888;4.466;2023-05-10T00:47:39;13.90;99.90
18446;DHT22;9352;50.888;4.466;2023-05-10T00:50:07;13.90;99.90
18446;DHT22;9352;50.888;4.466;2023-05-10T00:52:34;13.90;99.90
18446;DHT22;9352;50.888;4.466;2023-05-10T00:55:01;13.90;99.90
18446;DHT22;9352;50.888;4.466;2023-05-10T00:57:30;13.90;99.90
18446;DHT22;9352;50.888;4.466;2023-05-10T00:59:57;14.00;99.90
18446;DHT22;9352;50.888;4.466;2023-05-10T01:02:25;14.00;99.90
18446;DHT22;9352;50.888;4.466;2023-05-10T01:04:52;14.00;99.90
18446;DHT22;9352;50.888;4.466;2023-05-10T01:07:19;14.00;99.90
18446;DHT22;9352;50.888;4.466;2023-05-10T01:09:46;14.00;99.90
18446;DHT22;9352;50.888;4.466;2023-05-10T01:12:14;13.90;99.90
18446;DHT22;9352;50.888;4.466;2023-05-10T01:14:43;13.90;99.90
18446;DHT22;9352;50.888;4.466;2023-05-10T01:17:11;13.90;99.90
18446;DHT22;9352;50.888;4.466;2023-05-10T01:19:38;13.90;99.90
18446;DHT22;9352;50.888;4.466;2023-05-10T01:22:14;13.90;99.90
18446;DHT22;9352;50.888;4.466;2023-05-10T01:25:11;13.90;99.90
18446;DHT22;9352;50.888;4.466;2023-05-10T01:28:15;13.90;99.90
18446;DHT22;9352;50.888;4.466;2023-05-10T01:31:06;13.90;99.90
18446;DHT22;9352;50.888;4.466;2023-05-10T01:33:39;13.90;99.90
18446;DHT22;9352;50.888;4.466;2023-05-10T01:36:13;14.00;99.90
18446;DHT22;9352;50.888;4.466;2023-05-10T01:38:44;14.00;99.90
18446;DHT22;9352;50.888;4.466;2023-05-10T01:41:19;13.90;99.90
18446;DHT22;9352;50.888;4.466;2023-05-10T01:43:53;13.90;99.90
18446;DHT22;9352;50.888;4.466;2023-05-10T01:46:27;13.90;99.90
18446;DHT22;9352;50.888;4.466;2023-05-10T01:48:57;13.90;99.90
18446;DHT22;9352;50.888;4.466;2023-05-10T01:51:38;13.80;99.90
18446;DHT22;9352;50.888;4.466;2023-05-10T01:54:06;13.90;99.90
18446;DHT22;9352;50.888;4.466;2023-05-10T01:56:35;13.80;99.90
18446;DHT22;9352;50.888;4.466;2023-05-10T01:59:06;13.80;99.90
18446;DHT22;9352;50.888;4.466;2023-05-10T02:01:33;13.80;99.90
18446;DHT22;9352;50.888;4.466;2023-05-10T02:04:05;13.80;99.90
18446;DHT22;9352;50.888;4.466;2023-05-10T02:06:33;13.80;99.90
18446;DHT22;9352;50.888;4.466;2023-05-10T02:09:01;13.80;99.90
18446;DHT22;9352;50.888;4.466;2023-05-10T02:11:29;13.80;99.90
18446;DHT22;9352;50.888;4.466;2023-05-10T02:13:58;13.80;99.90
18446;DHT22;9352;50.888;4.466;2023-05-10T02:16:26;13.80;99.90
18446;DHT22;9352;50.888;4.466;2023-05-10T02:18:57;13.80;99.90
18446;DHT22;9352;50.888;4.466;2023-05-10T02:21:28;13.80;99.90
18446;DHT22;9352;50.888;4.466;2023-05-10T02:23:57;13.80;99.90
18446;DHT22;9352;50.888;4.466;2023-05-10T02:26:25;13.80;99.90
18446;DHT22;9352;50.888;4.466;2023-05-10T02:28:53;13.80;99.90
18446;DHT22;9352;50.888;4.466;2023-05-10T02:31:22;13.80;99.90
18446;DHT22;9352;50.888;4.466;2023-05-10T02:33:50;13.80;99.90
18446;DHT22;9352;50.888;4.466;2023-05-10T02:36:18;13.80;99.90
18446;DHT22;9352;50.888;4.466;2023-05-10T02:38:48;13.80;99.90
18446;DHT22;9352;50.888;4.466;2023-05-10T02:41:16;13.80;99.90
18446;DHT22;9352;50.888;4.466;2023-05-10T02:43:43;13.70;99.90
18446;DHT22;9352;50.888;4.466;2023-05-10T02:46:10;13.70;99.90
18446;DHT22;9352;50.888;4.466;2023-05-10T02:48:37;13.70;99.90
18446;DHT22;9352;50.888;4.466;2023-05-10T02:51:06;13.70;99.90
18446;DHT22;9352;50.888;4.466;2023-05-10T02:53:37;13.70;99.90
18446;DHT22;9352;50.888;4.466;2023-05-10T02:56:11;13.70;99.90
18446;DHT22;9352;50.888;4.466;2023-05-10T02:58:39;13.70;99.90
18446;DHT22;9352;50.888;4.466;2023-05-10T03:01:06;13.70;99.90
18446;DHT22;9352;50.888;4.466;2023-05-10T03:03:33;13.70;99.90
18446;DHT22;9352;50.888;4.466;2023-05-10T03:06:01;13.70;99.90
18446;DHT22;9352;50.888;4.466;2023-05-10T03:08:28;13.80;99.90
18446;DHT22;9352;50.888;4.466;2023-05-10T03:11:08;13.80;99.90
18446;DHT22;9352;50.888;4.466;2023-05-10T03:13:45;13.80;99.90
18446;DHT22;9352;50.888;4.466;2023-05-10T03:16:17;13.80;99.90
18446;DHT22;9352;50.888;4.466;2023-05-10T03:18:53;13.80;99.90
18446;DHT22;9352;50.888;4.466;2023-05-10T03:21:22;13.70;99.90
18446;DHT22;9352;50.888;4.466;2023-05-10T03:23:58;13.70;99.90
18446;DHT22;9352;50.888;4.466;2023-05-10T03:26:27;13.70;99.90
18446;DHT22;9352;50.888;4.466;2023-05-10T03:28:55;13.70;99.90
18446;DHT22;9352;50.888;4.466;2023-05-10T03:31:24;13.70;99.90
18446;DHT22;9352;50.888;4.466;2023-05-10T03:33:52;13.60;99.90
18446;DHT22;9352;50.888;4.466;2023-05-10T03:36:19;13.60;99.90
18446;DHT22;9352;50.888;4.466;2023-05-10T03:38:46;13.60;99.90
18446;DHT22;9352;50.888;4.466;2023-05-10T03:41:13;13.60;99.90
18446;DHT22;9352;50.888;4.466;2023-05-10T03:43:41;13.60;99.90
18446;DHT22;9352;50.888;4.466;2023-05-10T03:46:08;13.60;99.90
18446;DHT22;9352;50.888;4.466;2023-05-10T03:48:35;13.50;99.90
18446;DHT22;9352;50.888;4.466;2023-05-10T03:51:02;13.50;99.90
18446;DHT22;9352;50.888;4.466;2023-05-10T03:53:29;13.50;99.90
18446;DHT22;9352;50.888;4.466;2023-05-10T03:55:56;13.50;99.90
18446;DHT22;9352;50.888;4.466;2023-05-10T03:58:23;13.50;99.90
18446;DHT22;9352;50.888;4.466;2023-05-10T04:00:52;13.50;99.90
18446;DHT22;9352;50.888;4.466;2023-05-10T04:03:19;13.50;99.90
18446;DHT22;9352;50.888;4.466;2023-05-10T04:05:46;13.50;99.90
18446;DHT22;9352;50.888;4.466;2023-05-10T04:08:13;13.60;99.90
18446;DHT22;9352;50.888;4.466;2023-05-10T04:10:40;13.50;99.90
18446;DHT22;9352;50.888;4.466;2023-05-10T04:13:07;13.50;99.90
18446;DHT22;9352;50.888;4.466;2023-05-10T04:15:34;13.60;99.90
18446;DHT22;9352;50.888;4.466;2023-05-10T04:18:02;13.50;99.90
18446;DHT22;9352;50.888;4.466;2023-05-10T04:20:29;13.50;99.90
18446;DHT22;9352;50.888;4.466;2023-05-10T04:22:56;13.50;99.90
18446;DHT22;9352;50.888;4.466;2023-05-10T04:25:23;13.60;99.90
18446;DHT22;9352;50.888;4.466;2023-05-10T04:27:50;13.50;99.90
18446;DHT22;9352;50.888;4.466;2023-05-10T04:30:17;13.50;99.90
18446;DHT22;9352;50.888;4.466;2023-05-10T04:32:44;13.50;99.90
18446;DHT22;9352;50.888;4.466;2023-05-10T04:35:12;13.50;99.90
18446;DHT22;9352;50.888;4.466;2023-05-10T04:37:40;13.50;99.90
18446;DHT22;9352;50.888;4.466;2023-05-10T04:40:08;13.60;99.90
18446;DHT22;9352;50.888;4.466;2023-05-10T04:42:35;13.50;99.90
18446;DHT22;9352;50.888;4.466;2023-05-10T04:45:02;13.50;99.90
18446;DHT22;9352;50.888;4.466;2023-05-10T04:47:29;13.40;99.90
18446;DHT22;9352;50.888;4.466;2023-05-10T04:49:55;13.40;99.90
18446;DHT22;9352;50.888;4.466;2023-05-10T04:52:24;13.50;99.90
18446;DHT22;9352;50.888;4.466;2023-05-10T04:54:51;13.50;99.90
18446;DHT22;9352;50.888;4.466;2023-05-10T04:57:18;13.50;99.90
18446;DHT22;9352;50.888;4.466;2023-05-10T04:59:45;13.50;99.90
18446;DHT22;9352;50.888;4.466;2023-05-10T05:02:12;13.60;99.90
18446;DHT22;9352;50.888;4.466;2023-05-10T05:04:38;13.60;99.90
18446;DHT22;9352;50.888;4.466;2023-05-10T05:07:05;13.70;99.90
18446;DHT22;9352;50.888;4.466;2023-05-10T05:09:34;13.60;99.90
18446;DHT22;9352;50.888;4.466;2023-05-10T05:12:01;13.70;99.90
18446;DHT22;9352;50.888;4.466;2023-05-10T05:14:27;13.70;99.90
18446;DHT22;9352;50.888;4.466;2023-05-10T05:16:54;13.70;99.90
18446;DHT22;9352;50.888;4.466;2023-05-10T05:19:22;13.70;99.90
18446;DHT22;9352;50.888;4.466;2023-05-10T05:21:49;13.60;99.90
18446;DHT22;9352;50.888;4.466;2023-05-10T05:24:15;13.70;99.90
18446;DHT22;9352;50.888;4.466;2023-05-10T05:26:44;13.80;99.90
18446;DHT22;9352;50.888;4.466;2023-05-10T05:29:10;13.80;99.90
18446;DHT22;9352;50.888;4.466;2023-05-10T05:31:37;13.70;99.90
18446;DHT22;9352;50.888;4.466;2023-05-10T05:34:04;13.70;99.90
18446;DHT22;9352;50.888;4.466;2023-05-10T05:36:31;13.80;99.90
18446;DHT22;9352;50.888;4.466;2023-05-10T05:38:58;13.90;99.90
18446;DHT22;9352;50.888;4.466;2023-05-10T05:41:25;13.90;99.90
18446;DHT22;9352;50.888;4.466;2023-05-10T05:43:53;14.00;99.90
18446;DHT22;9352;50.888;4.466;2023-05-10T05:46:20;14.10;99.90
18446;DHT22;9352;50.888;4.466;2023-05-10T05:48:47;14.20;99.90
18446;DHT22;9352;50.888;4.466;2023-05-10T05:51:14;14.20;99.90
18446;DHT22;9352;50.888;4.466;2023-05-10T05:53:40;14.20;99.90
18446;DHT22;9352;50.888;4.466;2023-05-10T05:56:07;14.20;99.90
18446;DHT22;9352;50.888;4.466;2023-05-10T05:58:35;14.30;99.90
18446;DHT22;9352;50.888;4.466;2023-05-10T06:01:03;14.40;99.90
18446;DHT22;9352;50.888;4.466;2023-05-10T06:03:30;14.50;99.90
18446;DHT22;9352;50.888;4.466;2023-05-10T06:05:58;14.60;99.90
18446;DHT22;9352;50.888;4.466;2023-05-10T06:08:25;14.60;99.90
18446;DHT22;9352;50.888;4.466;2023-05-10T06:10:51;14.70;99.90
18446;DHT22;9352;50.888;4.466;2023-05-10T06:13:18;14.80;99.90
18446;DHT22;9352;50.888;4.466;2023-05-10T06:15:45;14.90;99.90
18446;DHT22;9352;50.888;4.466;2023-05-10T06:18:13;15.00;99.90
18446;DHT22;9352;50.888;4.466;2023-05-10T06:20:41;15.10;99.90
18446;DHT22;9352;50.888;4.466;2023-05-10T06:23:08;15.20;99.90
18446;DHT22;9352;50.888;4.466;2023-05-10T06:25:35;15.20;99.90
18446;DHT22;9352;50.888;4.466;2023-05-10T06:28:02;15.30;99.90
18446;DHT22;9352;50.888;4.466;2023-05-10T06:30:29;15.40;99.90
18446;DHT22;9352;50.888;4.466;2023-05-10T06:32:56;15.40;99.90
18446;DHT22;9352;50.888;4.466;2023-05-10T06:35:24;15.40;99.90
18446;DHT22;9352;50.888;4.466;2023-05-10T06:37:51;15.40;99.90
18446;DHT22;9352;50.888;4.466;2023-05-10T06:40:18;15.30;99.90
18446;DHT22;9352;50.888;4.466;2023-05-10T06:42:45;15.30;99.90
18446;DHT22;9352;50.888;4.466;2023-05-10T06:45:13;15.20;99.90
18446;DHT22;9352;50.888;4.466;2023-05-10T06:47:40;15.20;99.90
18446;DHT22;9352;50.888;4.466;2023-05-10T06:50:07;15.30;99.90
18446;DHT22;9352;50.888;4.466;2023-05-10T06:52:36;15.30;99.90
18446;DHT22;9352;50.888;4.466;2023-05-10T06:55:04;15.30;99.90
18446;DHT22;9352;50.888;4.466;2023-05-10T06:57:31;15.40;99.90
18446;DHT22;9352;50.888;4.466;2023-05-10T06:59:58;15.50;99.90
18446;DHT22;9352;50.888;4.466;2023-05-10T07:02:25;15.40;99.90
18446;DHT22;9352;50.888;4.466;2023-05-10T07:04:52;15.20;99.90
18446;DHT22;9352;50.888;4.466;2023-05-10T07:07:19;15.10;99.90
18446;DHT22;9352;50.888;4.466;2023-05-10T07:09:48;15.00;99.90
18446;DHT22;9352;50.888;4.466;2023-05-10T07:12:15;14.90;99.90
18446;DHT22;9352;50.888;4.466;2023-05-10T07:14:42;14.80;99.90
18446;DHT22;9352;50.888;4.466;2023-05-10T07:17:09;14.80;99.90
18446;DHT22;9352;50.888;4.466;2023-05-10T07:19:36;14.70;99.90
18446;DHT22;9352;50.888;4.466;2023-05-10T07:22:03;14.50;99.90
18446;DHT22;9352;50.888;4.466;2023-05-10T07:24:30;14.50;99.90
18446;DHT22;9352;50.888;4.466;2023-05-10T07:26:58;14.40;99.90
18446;DHT22;9352;50.888;4.466;2023-05-10T07:29:25;14.30;99.90
18446;DHT22;9352;50.888;4.466;2023-05-10T07:31:52;14.20;99.90
18446;DHT22;9352;50.888;4.466;2023-05-10T07:34:19;14.20;99.90
18446;DHT22;9352;50.888;4.466;2023-05-10T07:36:46;14.10;99.90
18446;DHT22;9352;50.888;4.466;2023-05-10T07:39:13;14.10;99.90
18446;DHT22;9352;50.888;4.466;2023-05-10T07:41:40;14.10;99.90
18446;DHT22;9352;50.888;4.466;2023-05-10T07:44:08;14.10;99.90
18446;DHT22;9352;50.888;4.466;2023-05-10T07:46:35;14.10;99.90
18446;DHT22;9352;50.888;4.466;2023-05-10T07:49:02;14.10;99.90
18446;DHT22;9352;50.888;4.466;2023-05-10T07:51:29;14.10;99.90
18446;DHT22;9352;50.888;4.466;2023-05-10T07:53:56;14.10;99.90
18446;DHT22;9352;50.888;4.466;2023-05-10T07:56:25;14.10;99.90
18446;DHT22;9352;50.888;4.466;2023-05-10T07:58:53;14.20;99.90
18446;DHT22;9352;50.888;4.466;2023-05-10T08:01:22;14.30;99.90
18446;DHT22;9352;50.888;4.466;2023-05-10T08:03:49;14.20;99.90
18446;DHT22;9352;50.888;4.466;2023-05-10T08:06:17;14.20;99.90
18446;DHT22;9352;50.888;4.466;2023-05-10T08:08:45;14.20;99.90
18446;DHT22;9352;50.888;4.466;2023-05-10T08:11:15;14.00;99.90
18446;DHT22;9352;50.888;4.466;2023-05-10T08:13:41;14.00;99.90
18446;DHT22;9352;50.888;4.466;2023-05-10T08:16:08;13.90;99.90
18446;DHT22;9352;50.888;4.466;2023-05-10T08:18:37;13.90;99.90
18446;DHT22;9352;50.888;4.466;2023-05-10T08:21:04;13.90;99.90
18446;DHT22;9352;50.888;4.466;2023-05-10T08:23:31;14.00;99.90
18446;DHT22;9352;50.888;4.466;2023-05-10T08:25:57;14.00;99.90
18446;DHT22;9352;50.888;4.466;2023-05-10T08:28:24;14.20;99.90
18446;DHT22;9352;50.888;4.466;2023-05-10T08:30:51;14.40;99.90
18446;DHT22;9352;50.888;4.466;2023-05-10T08:33:18;14.60;99.90
18446;DHT22;9352;50.888;4.466;2023-05-10T08:35:46;14.70;99.90
18446;DHT22;9352;50.888;4.466;2023-05-10T08:38:13;14.80;99.90
18446;DHT22;9352;50.888;4.466;2023-05-10T08:40:42;14.90;99.90
18446;DHT22;9352;50.888;4.466;2023-05-10T08:43:10;15.00;99.90
18446;DHT22;9352;50.888;4.466;2023-05-10T08:45:39;15.10;99.90
18446;DHT22;9352;50.888;4.466;2023-05-10T08:48:07;15.10;99.90
18446;DHT22;9352;50.888;4.466;2023-05-10T08:50:36;15.40;99.90
18446;DHT22;9352;50.888;4.466;2023-05-10T08:53:06;15.50;99.90
18446;DHT22;9352;50.888;4.466;2023-05-10T08:55:36;15.70;99.90
18446;DHT22;9352;50.888;4.466;2023-05-10T08:58:04;15.60;99.90
18446;DHT22;9352;50.888;4.466;2023-05-10T09:00:31;15.60;99.90
18446;DHT22;9352;50.888;4.466;2023-05-10T09:02:59;15.60;99.90
18446;DHT22;9352;50.888;4.466;2023-05-10T09:05:26;15.60;99.90
18446;DHT22;9352;50.888;4.466;2023-05-10T09:07:53;15.60;99.90
18446;DHT22;9352;50.888;4.466;2023-05-10T09:10:22;15.70;99.90
18446;DHT22;9352;50.888;4.466;2023-05-10T09:12:52;15.80;99.90
18446;DHT22;9352;50.888;4.466;2023-05-10T09:15:20;15.70;99.90
18446;DHT22;9352;50.888;4.466;2023-05-10T09:17:47;15.60;99.90
18446;DHT22;9352;50.888;4.466;2023-05-10T09:20:15;15.60;99.90
18446;DHT22;9352;50.888;4.466;2023-05-10T09:22:44;15.40;99.90
18446;DHT22;9352;50.888;4.466;2023-05-10T09:25:12;15.30;99.90
18446;DHT22;9352;50.888;4.466;2023-05-10T09:27:44;15.20;99.90
18446;DHT22;9352;50.888;4.466;2023-05-10T09:30:15;15.20;99.90
18446;DHT22;9352;50.888;4.466;2023-05-10T09:32:44;15.00;99.90
18446;DHT22;9352;50.888;4.466;2023-05-10T09:35:13;15.00;99.90
18446;DHT22;9352;50.888;4.466;2023-05-10T09:37:41;15.00;99.90
18446;DHT22;9352;50.888;4.466;2023-05-10T09:40:12;15.10;99.90
18446;DHT22;9352;50.888;4.466;2023-05-10T09:42:42;15.10;99.90
18446;DHT22;9352;50.888;4.466;2023-05-10T09:45:09;15.10;99.90
18446;DHT22;9352;50.888;4.466;2023-05-10T09:47:36;15.30;99.90
18446;DHT22;9352;50.888;4.466;2023-05-10T09:50:04;15.40;99.90
18446;DHT22;9352;50.888;4.466;2023-05-10T09:52:46;15.50;99.90
18446;DHT22;9352;50.888;4.466;2023-05-10T09:55:13;15.60;99.90
18446;DHT22;9352;50.888;4.466;2023-05-10T09:57:42;15.60;99.90
18446;DHT22;9352;50.888;4.466;2023-05-10T10:00:09;15.70;99.90
18446;DHT22;9352;50.888;4.466;2023-05-10T10:02:36;15.70;99.90
18446;DHT22;9352;50.888;4.466;2023-05-10T10:05:05;15.80;99.90
18446;DHT22;9352;50.888;4.466;2023-05-10T10:07:33;15.90;99.90
18446;DHT22;9352;50.888;4.466;2023-05-10T10:10:00;16.00;99.90
18446;DHT22;9352;50.888;4.466;2023-05-10T10:12:28;16.00;99.90
18446;DHT22;9352;50.888;4.466;2023-05-10T10:14:56;16.00;99.90
18446;DHT22;9352;50.888;4.466;2023-05-10T10:17:25;15.90;99.90
18446;DHT22;9352;50.888;4.466;2023-05-10T10:19:55;15.70;99.90
18446;DHT22;9352;50.888;4.466;2023-05-10T10:22:23;15.60;99.90
18446;DHT22;9352;50.888;4.466;2023-05-10T10:24:50;15.60;99.90
18446;DHT22;9352;50.888;4.466;2023-05-10T10:27:23;15.50;99.90
18446;DHT22;9352;50.888;4.466;2023-05-10T10:30:03;15.50;99.90
18446;DHT22;9352;50.888;4.466;2023-05-10T10:32:44;15.50;99.90
18446;DHT22;9352;50.888;4.466;2023-05-10T10:35:15;15.40;99.90
18446;DHT22;9352;50.888;4.466;2023-05-10T10:37:46;15.40;99.90
18446;DHT22;9352;50.888;4.466;2023-05-10T10:40:24;15.40;99.90
18446;DHT22;9352;50.888;4.466;2023-05-10T10:42:52;15.40;99.90
18446;DHT22;9352;50.888;4.466;2023-05-10T10:45:21;15.30;99.90
18446;DHT22;9352;50.888;4.466;2023-05-10T10:47:48;15.20;99.90
18446;DHT22;9352;50.888;4.466;2023-05-10T10:50:17;15.20;99.90
18446;DHT22;9352;50.888;4.466;2023-05-10T10:52:44;15.20;99.90
18446;DHT22;9352;50.888;4.466;2023-05-10T10:55:14;15.40;99.90
18446;DHT22;9352;50.888;4.466;2023-05-10T10:57:47;15.50;99.90
18446;DHT22;9352;50.888;4.466;2023-05-10T11:00:24;15.50;99.90
18446;DHT22;9352;50.888;4.466;2023-05-10T11:02:52;15.60;99.90
18446;DHT22;9352;50.888;4.466;2023-05-10T11:05:43;15.70;99.90
18446;DHT22;9352;50.888;4.466;2023-05-10T11:08:13;15.70;99.90
18446;DHT22;9352;50.888;4.466;2023-05-10T11:13:33;15.90;99.90
18446;DHT22;9352;50.888;4.466;2023-05-10T11:16:16;16.10;99.90
18446;DHT22;9352;50.888;4.466;2023-05-10T11:18:55;16.20;99.90
18446;DHT22;9352;50.888;4.466;2023-05-10T11:21:23;16.30;99.90
18446;DHT22;9352;50.888;4.466;2023-05-10T11:23:51;16.30;99.90
18446;DHT22;9352;50.888;4.466;2023-05-10T11:26:22;16.30;99.90
18446;DHT22;9352;50.888;4.466;2023-05-10T11:28:52;16.40;99.90
18446;DHT22;9352;50.888;4.466;2023-05-10T11:31:21;16.50;99.90
18446;DHT22;9352;50.888;4.466;2023-05-10T11:33:50;16.60;99.90
18446;DHT22;9352;50.888;4.466;2023-05-10T11:36:19;16.70;99.90
18446;DHT22;9352;50.888;4.466;2023-05-10T11:38:48;16.80;99.90
18446;DHT22;9352;50.888;4.466;2023-05-10T11:41:18;16.60;99.90
18446;DHT22;9352;50.888;4.466;2023-05-10T11:43:48;16.70;99.90
18446;DHT22;9352;50.888;4.466;2023-05-10T11:46:18;16.80;99.90
18446;DHT22;9352;50.888;4.466;2023-05-10T11:48:49;16.80;99.90
18446;DHT22;9352;50.888;4.466;2023-05-10T11:51:20;16.90;99.90
18446;DHT22;9352;50.888;4.466;2023-05-10T11:53:48;17.00;99.90
18446;DHT22;9352;50.888;4.466;2023-05-10T11:56:15;17.10;99.90
18446;DHT22;9352;50.888;4.466;2023-05-10T11:58:42;17.20;99.90
18446;DHT22;9352;50.888;4.466;2023-05-10T12:01:09;17.20;99.90
18446;DHT22;9352;50.888;4.466;2023-05-10T12:03:37;17.40;99.90
18446;DHT22;9352;50.888;4.466;2023-05-10T12:06:07;17.50;99.90
18446;DHT22;9352;50.888;4.466;2023-05-10T12:08:34;17.50;99.90
18446;DHT22;9352;50.888;4.466;2023-05-10T12:11:05;17.60;99.90
18446;DHT22;9352;50.888;4.466;2023-05-10T12:13:36;17.60;99.90
18446;DHT22;9352;50.888;4.466;2023-05-10T12:16:13;17.80;99.90
18446;DHT22;9352;50.888;4.466;2023-05-10T12:18:40;18.00;99.90
18446;DHT22;9352;50.888;4.466;2023-05-10T12:21:09;18.00;99.90
18446;DHT22;9352;50.888;4.466;2023-05-10T12:23:37;18.00;99.90
18446;DHT22;9352;50.888;4.466;2023-05-10T12:26:04;18.10;99.90
18446;DHT22;9352;50.888;4.466;2023-05-10T12:28:32;18.30;99.90
18446;DHT22;9352;50.888;4.466;2023-05-10T12:30:59;18.60;99.90
18446;DHT22;9352;50.888;4.466;2023-05-10T12:33:26;19.10;99.90
18446;DHT22;9352;50.888;4.466;2023-05-10T12:35:54;19.50;99.90
18446;DHT22;9352;50.888;4.466;2023-05-10T12:38:27;20.10;99.90
18446;DHT22;9352;50.888;4.466;2023-05-10T12:40:56;20.70;99.90
18446;DHT22;9352;50.888;4.466;2023-05-10T12:43:23;21.30;99.90
18446;DHT22;9352;50.888;4.466;2023-05-10T12:45:51;21.80;99.90
18446;DHT22;9352;50.888;4.466;2023-05-10T12:48:18;22.40;99.90
18446;DHT22;9352;50.888;4.466;2023-05-10T12:50:48;22.70;99.90
18446;DHT22;9352;50.888;4.466;2023-05-10T12:53:16;22.40;99.90
18446;DHT22;9352;50.888;4.466;2023-05-10T12:55:45;22.40;99.90
18446;DHT22;9352;50.888;4.466;2023-05-10T12:58:18;22.40;99.90
18446;DHT22;9352;50.888;4.466;2023-05-10T13:00:47;22.40;99.90
18446;DHT22;9352;50.888;4.466;2023-05-10T13:03:18;22.60;99.90
18446;DHT22;9352;50.888;4.466;2023-05-10T13:05:50;22.90;99.90
18446;DHT22;9352;50.888;4.466;2023-05-10T13:08:20;23.00;99.90
18446;DHT22;9352;50.888;4.466;2023-05-10T13:10:49;22.80;99.90
18446;DHT22;9352;50.888;4.466;2023-05-10T13:13:16;22.40;99.90
18446;DHT22;9352;50.888;4.466;2023-05-10T13:15:44;22.00;99.90
18446;DHT22;9352;50.888;4.466;2023-05-10T13:18:11;21.70;99.90
18446;DHT22;9352;50.888;4.466;2023-05-10T13:20:38;21.70;99.90
18446;DHT22;9352;50.888;4.466;2023-05-10T13:23:05;21.70;99.90
18446;DHT22;9352;50.888;4.466;2023-05-10T13:25:32;21.50;99.90
18446;DHT22;9352;50.888;4.466;2023-05-10T13:28:01;21.10;99.90
18446;DHT22;9352;50.888;4.466;2023-05-10T13:30:30;21.20;99.90
18446;DHT22;9352;50.888;4.466;2023-05-10T13:32:57;21.20;99.90
18446;DHT22;9352;50.888;4.466;2023-05-10T13:35:24;21.30;99.90
18446;DHT22;9352;50.888;4.466;2023-05-10T13:37:51;21.30;99.90
18446;DHT22;9352;50.888;4.466;2023-05-10T13:40:19;21.40;99.90
18446;DHT22;9352;50.888;4.466;2023-05-10T13:42:46;21.20;99.90
18446;DHT22;9352;50.888;4.466;2023-05-10T13:45:14;21.00;99.90
18446;DHT22;9352;50.888;4.466;2023-05-10T13:47:41;21.00;99.90
18446;DHT22;9352;50.888;4.466;2023-05-10T13:50:09;21.10;99.90
18446;DHT22;9352;50.888;4.466;2023-05-10T13:52:36;21.10;99.90
18446;DHT22;9352;50.888;4.466;2023-05-10T13:55:03;21.10;99.90
18446;DHT22;9352;50.888;4.466;2023-05-10T13:57:31;21.00;99.90
18446;DHT22;9352;50.888;4.466;2023-05-10T14:00:00;21.10;99.90
18446;DHT22;9352;50.888;4.466;2023-05-10T14:02:28;20.90;99.90
18446;DHT22;9352;50.888;4.466;2023-05-10T14:04:55;21.00;99.90
18446;DHT22;9352;50.888;4.466;2023-05-10T14:07:22;21.00;99.90
18446;DHT22;9352;50.888;4.466;2023-05-10T14:09:49;20.80;99.90
18446;DHT22;9352;50.888;4.466;2023-05-10T14:12:16;20.70;99.90
18446;DHT22;9352;50.888;4.466;2023-05-10T14:14:43;20.60;99.90
18446;DHT22;9352;50.888;4.466;2023-05-10T14:17:10;20.50;99.90
18446;DHT22;9352;50.888;4.466;2023-05-10T14:19:39;20.30;99.90
18446;DHT22;9352;50.888;4.466;2023-05-10T14:22:06;20.10;99.90
18446;DHT22;9352;50.888;4.466;2023-05-10T14:24:33;19.80;99.90
18446;DHT22;9352;50.888;4.466;2023-05-10T14:27:00;19.60;99.90
18446;DHT22;9352;50.888;4.466;2023-05-10T14:29:28;19.40;99.90
18446;DHT22;9352;50.888;4.466;2023-05-10T14:31:58;19.40;99.90
18446;DHT22;9352;50.888;4.466;2023-05-10T14:34:26;19.40;99.90
18446;DHT22;9352;50.888;4.466;2023-05-10T14:37:03;19.10;99.90
18446;DHT22;9352;50.888;4.466;2023-05-10T14:39:33;19.10;99.90
18446;DHT22;9352;50.888;4.466;2023-05-10T14:42:04;19.20;99.90
18446;DHT22;9352;50.888;4.466;2023-05-10T14:44:39;19.20;99.90
18446;DHT22;9352;50.888;4.466;2023-05-10T14:47:11;19.10;99.90
18446;DHT22;9352;50.888;4.466;2023-05-10T14:49:38;18.80;99.90
18446;DHT22;9352;50.888;4.466;2023-05-10T14:52:07;18.60;99.90
18446;DHT22;9352;50.888;4.466;2023-05-10T14:54:34;18.40;99.90
18446;DHT22;9352;50.888;4.466;2023-05-10T14:57:01;18.40;99.90
18446;DHT22;9352;50.888;4.466;2023-05-10T14:59:28;18.20;99.90
18446;DHT22;9352;50.888;4.466;2023-05-10T15:01:55;18.00;99.90
18446;DHT22;9352;50.888;4.466;2023-05-10T15:04:21;18.10;99.90
18446;DHT22;9352;50.888;4.466;2023-05-10T15:06:48;17.80;99.90
18446;DHT22;9352;50.888;4.466;2023-05-10T15:09:17;17.60;99.90
18446;DHT22;9352;50.888;4.466;2023-05-10T15:11:43;17.50;99.90
18446;DHT22;9352;50.888;4.466;2023-05-10T15:14:10;17.30;99.90
18446;DHT22;9352;50.888;4.466;2023-05-10T15:16:37;17.20;99.90
18446;DHT22;9352;50.888;4.466;2023-05-10T15:19:04;17.10;99.90
18446;DHT22;9352;50.888;4.466;2023-05-10T15:21:31;17.10;99.90
18446;DHT22;9352;50.888;4.466;2023-05-10T15:24:04;16.90;99.90
18446;DHT22;9352;50.888;4.466;2023-05-10T15:26:32;16.50;99.90
18446;DHT22;9352;50.888;4.466;2023-05-10T15:28:59;16.40;99.90
18446;DHT22;9352;50.888;4.466;2023-05-10T15:31:26;16.30;99.90
18446;DHT22;9352;50.888;4.466;2023-05-10T15:33:57;16.20;99.90
18446;DHT22;9352;50.888;4.466;2023-05-10T15:36:25;16.30;99.90
18446;DHT22;9352;50.888;4.466;2023-05-10T15:38:53;16.30;99.90
18446;DHT22;9352;50.888;4.466;2023-05-10T15:41:20;16.20;99.90
18446;DHT22;9352;50.888;4.466;2023-05-10T15:43:48;16.20;99.90
18446;DHT22;9352;50.888;4.466;2023-05-10T15:46:15;16.10;99.90
18446;DHT22;9352;50.888;4.466;2023-05-10T15:48:42;16.10;99.90
18446;DHT22;9352;50.888;4.466;2023-05-10T15:51:09;16.00;99.90
18446;DHT22;9352;50.888;4.466;2023-05-10T15:53:36;16.00;99.90
18446;DHT22;9352;50.888;4.466;2023-05-10T15:56:03;16.10;99.90